Temp     Hi    Low   Out    Dew  Wind  Wind   Wind    Hi    Hi   Wind   Heat    THW   THSW                Rain  Solar   Solar Hi Solar   UV    UV    Hi     Heat    Cool    In     In    In     In     In   In Air          Wind  Wind    ISS   Arc.
  Date    Time     Out   Temp   Temp   Hum    Pt. Speed   Dir    Run Speed   Dir  Chill  Index  Index  Index   Bar    Rain  Rate   Rad.  Energy    Rad.  Index  Dose   UV     D-D     D-D    Temp   Hum    Dew   Heat    EMC Density     ET   Samp   Tx   Recept  Int.
------------------------------------------------------------------------------------------------------------------------------------------------------------------------------------------------------------------------------------------------------------------------
12/17/18 12:30a   45.4   45.4   45.1    46   25.8   2.0    SW   1.00   6.0     S   45.4   44.1   44.1    ---  30.131  0.00  0.00   ---      ---    ---     ---   ---   ---   0.408   0.000   71.6    41   46.6   69.6   7.89  .0744    0.000   681    2    100.0   30 
12/17/18  1:00a   45.4   45.5   45.4    49   27.3   3.0     S   1.50   7.0     S   44.5   44.3   43.4    ---  30.120  0.00  0.00   ---      ---    ---     ---   ---   ---   0.408   0.000   70.9    40   45.4   68.5   7.73  .0745    0.000   668    2    100.0   30 
12/17/18  1:30a   45.8   46.0   45.4    49   27.7   1.0     N   0.50   5.0    SE   45.8   44.7   44.7    ---  30.119  0.00  0.00   ---      ---    ---     ---   ---   ---   0.400   0.000   70.6    40   45.1   68.1   7.74  .0746    0.000   682    2    100.0   30 
12/17/18  2:00a   45.5   45.8   44.5    52   28.9   2.0     S   1.00   5.0     S   45.5   44.4   44.4    ---  30.135  0.00  0.00   ---      ---    ---     ---   ---   ---   0.406   0.000   70.1    40   44.6   67.4   7.75  .0747    0.000   684    2    100.0   30 
12/17/18  2:30a   47.9   47.9   45.5    54   32.0   3.0     E   1.50   6.0     E   47.3   46.9   46.3    ---  30.131  0.00  0.00   ---      ---    ---     ---   ---   ---   0.356   0.000   69.7    39   43.6   67.0   7.66  .0748    0.000   677    2    100.0   30 
12/17/18  3:00a   47.7   48.2   47.7    56   32.8   2.0   SSW   1.00   8.0   ESE   47.7   46.7   46.7    ---  30.132  0.00  0.00   ---      ---    ---     ---   ---   ---   0.360   0.000   69.4    39   43.4   66.8   7.66  .0748    0.000   674    2    100.0   30 
12/17/18  3:30a   47.6   48.2   47.4    58   33.5   4.0   ENE   2.00  10.0     E   46.1   46.7   45.2    ---  30.137  0.00  0.00   ---      ---    ---     ---   ---   ---   0.363   0.000   69.0    39   43.0   66.5   7.67  .0749    0.000   681    2    100.0   30 
12/17/18  4:00a   45.8   47.6   45.8    64   34.3   4.0   WNW   2.00  11.0   NNW   44.0   45.1   43.3    ---  30.120  0.00  0.00   ---      ---    ---     ---   ---   ---   0.400   0.000   68.7    39   42.7   66.2   7.68  .0749    0.000   685    2    100.0   30 
12/17/18  4:30a   45.1   45.8   45.1    66   34.4   2.0   ENE   1.00   6.0     E   45.1   44.4   44.4    ---  30.117  0.00  0.00   ---      ---    ---     ---   ---   ---   0.415   0.000   68.4    39   42.5   65.9   7.68  .0750    0.000   674    2    100.0   30 
12/17/18  5:00a   44.5   45.1   44.5    70   35.3   0.0    NE   0.00   3.0     E   44.5   44.0   44.0    ---  30.130  0.00  0.00   ---      ---    ---     ---   ---   ---   0.427   0.000   68.2    39   42.3   65.7   7.69  .0750    0.000   675    2    100.0   30 
12/17/18  5:30a   44.6   44.6   44.3    71   35.8   4.0   WNW   2.00  11.0   WNW   42.6   44.1   42.1    ---  30.133  0.00  0.00   ---      ---    ---     ---   ---   ---   0.425   0.000   67.9    39   42.0   65.4   7.69  .0751    0.000   680    2    100.0   30 
12/17/18  6:00a   44.3   45.1   44.3    75   36.9   3.0     S   1.50   6.0     W   43.2   43.9   42.8    ---  30.136  0.00  0.00   ---      ---    ---     ---   ---   ---   0.431   0.000   67.7    39   41.8   65.1   7.70  .0751    0.000   559    2     83.8   30 
12/17/18  6:30a   44.1   44.3   44.1    75   36.7   2.0   SSW   1.00   7.0   ENE   44.1   43.7   43.7    ---  30.132  0.00  0.00   ---      ---    ---     ---   ---   ---   0.435   0.000   67.5    39   41.7   64.9   7.70  .0751    0.000   672    2    100.0   30 
12/17/18  7:00a   43.6   44.1   43.6    78   37.2   1.0   ESE   0.50   3.0   ESE   43.6   43.3   43.3    ---  30.140  0.01  0.00   ---      ---    ---     ---   ---   ---   0.446   0.000   67.2    39   41.4   64.6   7.71  .0752    0.000   677    2    100.0   30 
12/17/18  7:30a   43.3   43.6   43.3    80   37.5   1.0   ENE   0.50   5.0    SW   43.3   43.0   43.0    ---  30.136  0.00  0.00   ---      ---    ---     ---   ---   ---   0.452   0.000   67.0    39   41.2   64.4   7.71  .0752    0.000   686    2    100.0   30 
12/17/18  8:00a   44.5   44.5   43.3    80   38.7   1.0     S   0.50   3.0    SW   44.5   44.3   44.3    ---  30.147  0.00  0.00   ---      ---    ---     ---   ---   ---   0.427   0.000   67.2    39   41.4   64.6   7.71  .0752    0.000   684    2    100.0   30 
12/17/18  8:30a   45.5   45.5   44.5    78   39.0   1.0     N   0.50   6.0   NNW   45.5   45.2   45.2    ---  30.165  0.00  0.00   ---      ---    ---     ---   ---   ---   0.406   0.000   69.2    40   43.8   66.7   7.77  .0749    0.000   672    2    100.0   30 
12/17/18  9:00a   46.2   46.2   45.5    78   39.7   1.0    NW   0.50   5.0   NNW   46.2   45.9   45.9    ---  30.173  0.00  0.00   ---      ---    ---     ---   ---   ---   0.392   0.000   70.9    41   46.0   68.6   7.91  .0746    0.000   677    2    100.0   30 
12/17/18  9:30a   47.1   47.1   46.4    80   41.2   2.0     S   1.00   4.0     S   47.1   46.9   46.9    ---  30.180  0.00  0.00   ---      ---    ---     ---   ---   ---   0.373   0.000   71.4    40   45.8   69.2   7.72  .0746    0.000   685    2    100.0   30 
12/17/18 10:00a   47.1   47.4   47.0    79   40.9   4.0   NNW   2.00  13.0   NNW   45.5   46.9   45.3    ---  30.175  0.00  0.00   ---      ---    ---     ---   ---   ---   0.373   0.000   71.1    41   46.2   68.8   7.91  .0746    0.000   587    2     88.0   30 
12/17/18 10:30a   47.9   47.9   47.1    78   41.4   3.0    NW   1.50   7.0   NNW   47.3   47.7   47.1    ---  30.178  0.00  0.00   ---      ---    ---     ---   ---   ---   0.356   0.000   70.7    40   45.2   68.2   7.74  .0747    0.000   672    2    100.0   30 
12/17/18 11:00a   46.8   47.9   46.8    83   41.9   5.0   WSW   2.50  13.0   WSW   44.5   46.7   44.4    ---  30.162  0.00  0.00   ---      ---    ---     ---   ---   ---   0.379   0.000   72.1    40   46.4   70.3   7.71  .0744    0.000   673    2    100.0   30 
12/17/18 11:30a   45.4   46.8   45.4    85   41.2   8.0    NW   4.00  16.0   NNW   41.1   45.3   41.0    ---  30.157  0.00  0.00   ---      ---    ---     ---   ---   ---   0.408   0.000   71.8    40   46.2   69.8   7.71  .0745    0.000   681    2    100.0   30 
12/17/18 12:00p   45.8   45.8   45.4    87   42.2   8.0    NW   4.00  18.0    NW   41.6   45.8   41.6    ---  30.145  0.00  0.00   ---      ---    ---     ---   ---   ---   0.400   0.000   71.6    40   46.0   69.5   7.72  .0745    0.000   684    2    100.0   30 
12/17/18 12:30p   45.8   45.8   45.7    88   42.4   5.0    NW   2.50  10.0    NW   43.3   45.9   43.4    ---  30.133  0.00  0.00   ---      ---    ---     ---   ---   ---   0.400   0.000   71.4    40   45.8   69.2   7.72  .0745    0.000   568    2     85.2   30 
12/17/18  1:00p   46.2   46.2   45.7    87   42.5   8.0    NW   4.00  15.0   NNW   42.0   46.2   42.0    ---  30.127  0.00  0.00   ---      ---    ---     ---   ---   ---   0.392   0.000   73.0    40   47.2   71.7   7.69  .0742    0.000   667    2    100.0   30 
12/17/18  1:30p   46.4   46.4   46.2    84   41.8   9.0    NW   4.50  13.0    NW   41.6   46.4   41.6    ---  30.127  0.00  0.00   ---      ---    ---     ---   ---   ---   0.387   0.000   73.0    40   47.2   71.7   7.69  .0742    0.000   681    2    100.0   30 
12/17/18  2:00p   47.0   47.0   46.4    84   42.4  10.0    NW   5.00  19.0    NW   41.8   47.0   41.8    ---  30.127  0.00  0.00   ---      ---    ---     ---   ---   ---   0.375   0.000   72.8    40   47.1   71.4   7.69  .0742    0.000   682    2    100.0   30 
12/17/18  2:30p   46.4   47.1   46.4    86   42.4  13.0    NW   6.50  23.0   WNW   39.8   46.4   39.8    ---  30.131  0.00  0.00   ---      ---    ---     ---   ---   ---   0.387   0.000   71.8    40   46.2   69.8   7.71  .0744    0.000   684    2    100.0   30 
12/17/18  3:00p   46.1   46.4   46.1    88   42.7  14.0    NW   7.00  22.0    NW   39.1   46.2   39.2    ---  30.134  0.01  0.00   ---      ---    ---     ---   ---   ---   0.394   0.000   73.6    39   47.1   72.5   7.58  .0741    0.000   669    2    100.0   30 
12/17/18  3:30p   45.5   46.1   45.5    89   42.4  14.0    NW   7.00  21.0   NNW   38.4   45.6   38.5    ---  30.156  0.00  0.00   ---      ---    ---     ---   ---   ---   0.406   0.000   73.1    40   47.3   71.8   7.69  .0743    0.000   660    2     99.0   30 
12/17/18  4:00p   45.1   45.5   45.1    89   42.1  10.0    NW   5.00  20.0   NNW   39.6   45.2   39.7    ---  30.163  0.00  0.00   ---      ---    ---     ---   ---   ---   0.415   0.000   72.6    41   47.5   71.1   7.85  .0743    0.000   684    2    100.0   30 
12/17/18  4:30p   44.5   45.2   44.5    89   41.5   7.0    NW   3.50  15.0   NNW   40.6   44.6   40.7    ---  30.160  0.00  0.00   ---      ---    ---     ---   ---   ---   0.427   0.000   73.0    42   48.5   71.9   7.99  .0742    0.000   681    2    100.0   30 
12/17/18  5:00p   44.2   44.5   44.1    90   41.5   4.0    NW   2.00   7.0   NNW   42.1   44.3   42.2    ---  30.172  0.00  0.00   ---      ---    ---     ---   ---   ---   0.433   0.000   72.8    43   49.0   71.6   8.14  .0743    0.000   668    2    100.0   30 
12/17/18  5:30p   44.2   44.3   44.1    89   41.2   4.0   WNW   2.00   7.0   WNW   42.1   44.3   42.2    ---  30.188  0.00  0.00   ---      ---    ---     ---   ---   ---   0.433   0.000   73.0    42   48.5   71.9   7.99  .0743    0.000   685    2    100.0   30 
12/17/18  6:00p   43.9   44.2   43.9    88   40.6   3.0   WNW   1.50   8.0   WNW   42.8   43.9   42.8    ---  30.200  0.00  0.00   ---      ---    ---     ---   ---   ---   0.440   0.000   72.6    44   49.4   71.4   8.30  .0744    0.000   685    2    100.0   30 
12/17/18  6:30p   43.9   43.9   43.8    88   40.6   4.0   WNW   2.00   8.0   WNW   41.8   43.9   41.8    ---  30.216  0.00  0.00   ---      ---    ---     ---   ---   ---   0.440   0.000   72.3    43   48.5   70.9   8.16  .0745    0.000   678    2    100.0   30 
12/17/18  7:00p   44.2   44.3   43.9    86   40.3   6.0   WNW   3.00  10.0     W   40.7   44.1   40.6    ---  30.239  0.00  0.00   ---      ---    ---     ---   ---   ---   0.433   0.000   71.4    43   47.7   69.5   8.19  .0747    0.000   665    2     99.7   30 
12/17/18  7:30p   44.1   44.3   44.1    86   40.2   4.0   WNW   2.00   8.0   WNW   42.0   44.0   41.9    ---  30.245  0.00  0.00   ---      ---    ---     ---   ---   ---   0.435   0.000   71.1    45   48.7   69.3   8.45  .0747    0.000   647    2     97.0   30 
12/17/18  8:00p   43.6   44.1   43.6    87   40.0   3.0   WNW   1.50   7.0     W   42.5   43.6   42.5    ---  30.245  0.00  0.00   ---      ---    ---     ---   ---   ---   0.446   0.000   73.1    45   50.5   72.2   8.45  .0744    0.000   684    2    100.0   30 
12/17/18  8:30p   43.6   43.6   43.6    87   40.0   1.0     W   0.50   6.0    NW   43.6   43.6   43.6    ---  30.257  0.00  0.00   ---      ---    ---     ---   ---   ---   0.446   0.000   73.0    44   49.8   72.0   8.29  .0744    0.000   682    2    100.0   30 
12/17/18  9:00p   43.5   43.6   43.5    88   40.2   2.0    NW   1.00   7.0   NNW   43.5   43.5   43.5    ---  30.266  0.00  0.00   ---      ---    ---     ---   ---   ---   0.448   0.000   72.4    44   49.3   71.1   8.30  .0746    0.000   664    2     99.6   30 
12/17/18  9:30p   43.6   43.6   43.5    88   40.3   2.0     N   1.00   6.0   NNW   43.6   43.6   43.6    ---  30.265  0.00  0.00   ---      ---    ---     ---   ---   ---   0.446   0.000   71.9    44   48.8   70.4   8.31  .0747    0.000   681    2    100.0   30 
12/17/18 10:00p   43.5   43.6   43.5    89   40.5   3.0   NNW   1.50   6.0   NNW   42.3   43.5   42.3    ---  30.283  0.00  0.00   ---      ---    ---     ---   ---   ---   0.448   0.000   71.4    44   48.3   69.6   8.32  .0748    0.000   683    2    100.0   30 
12/17/18 10:30p   43.3   43.5   43.3    90   40.6   2.0   NNW   1.00   5.0   NNW   43.3   43.3   43.3    ---  30.288  0.00  0.00   ---      ---    ---     ---   ---   ---   0.452   0.000   71.2    44   48.2   69.3   8.33  .0748    0.000   684    2    100.0   30 
12/17/18 11:00p   43.2   43.3   43.2    90   40.5   1.0   NNW   0.50   4.0   NNE   43.2   43.2   43.2    ---  30.281  0.00  0.00   ---      ---    ---     ---   ---   ---   0.454   0.000   71.1    45   48.7   69.3   8.45  .0748    0.000   666    2     99.9   30 
12/17/18 11:30p   43.2   43.2   43.1    91   40.8   3.0   NNW   1.50   7.0   NNW   42.0   43.2   42.0    ---  30.289  0.00  0.00   ---      ---    ---     ---   ---   ---   0.454   0.000   70.6    46   48.8   68.7   8.64  .0749    0.000   579    2     86.8   30 
12/18/18 12:00a   43.1   43.2   43.1    91   40.7   2.0   NNW   1.00   6.0    NW   43.1   43.1   43.1    ---  30.284  0.00  0.00   ---      ---    ---     ---   ---   ---   0.456   0.000   70.1    46   48.4   68.0   8.65  .0750    0.000   685    2    100.0   30 
12/18/18 12:30a   42.9   43.1   42.9    91   40.5   2.0   NNW   1.00   5.0   NNW   42.9   42.9   42.9    ---  30.275  0.00  0.00   ---      ---    ---     ---   ---   ---   0.460   0.000   69.6    46   47.9   67.6   8.65  .0750    0.000   683    2    100.0   30 
12/18/18  1:00a   42.8   42.9   42.8    92   40.6   2.0   NNW   1.00   5.0   NNW   42.8   42.8   42.8    ---  30.273  0.00  0.00   ---      ---    ---     ---   ---   ---   0.463   0.000   69.2    46   47.5   67.3   8.65  .0751    0.000   668    2    100.0   30 
12/18/18  1:30a   42.6   42.8   42.6    92   40.4   2.0   NNW   1.00   3.0   NNW   42.6   42.6   42.6    ---  30.273  0.00  0.00   ---      ---    ---     ---   ---   ---   0.467   0.000   68.7    45   46.5   66.8   8.48  .0752    0.000   684    2    100.0   30 
12/18/18  2:00a   42.6   42.6   42.5    92   40.4   1.0   NNW   0.50   3.0    NW   42.6   42.6   42.6    ---  30.272  0.00  0.00   ---      ---    ---     ---   ---   ---   0.467   0.000   68.4    45   46.2   66.6   8.48  .0752    0.000   683    2    100.0   30 
12/18/18  2:30a   42.5   42.6   42.5    92   40.3   1.0    NW   0.50   3.0    NW   42.5   42.5   42.5    ---  30.267  0.00  0.00   ---      ---    ---     ---   ---   ---   0.469   0.000   68.2    45   46.0   66.4   8.49  .0753    0.000   580    2     87.0   30